createdAt,value
2018-08-13T00:02:39.459Z,54.90
2018-08-13T00:07:42.657Z,55.20
2018-08-13T00:12:45.685Z,56.10
2018-08-13T00:17:48.828Z,55.90
2018-08-13T00:22:51.835Z,56.20
2018-08-13T00:27:54.945Z,56.30
2018-08-13T00:32:58.057Z,56.50
2018-08-13T00:38:01.055Z,56.70
2018-08-13T00:43:04.379Z,56.80
2018-08-13T00:48:07.419Z,57.20
2018-08-13T00:53:10.459Z,57.70
2018-08-13T00:58:13.705Z,57.80
2018-08-13T01:03:16.744Z,57.70
2018-08-13T01:08:19.755Z,58.00
2018-08-13T01:13:24.116Z,57.90
2018-08-13T01:18:27.376Z,57.90
2018-08-13T01:23:30.583Z,57.70
2018-08-13T01:28:33.599Z,57.70
2018-08-13T01:33:36.634Z,58.00
2018-08-13T01:38:39.643Z,57.90
2018-08-13T01:43:42.664Z,58.20
2018-08-13T01:48:45.727Z,58.40
2018-08-13T01:53:48.847Z,59.00
2018-08-13T01:58:51.860Z,59.10
2018-08-13T02:03:54.887Z,59.30
2018-08-13T02:08:57.987Z,59.70
2018-08-13T02:14:01.088Z,60.20
2018-08-13T02:19:04.098Z,60.40
2018-08-13T02:24:07.174Z,60.90
2018-08-13T02:29:10.183Z,60.60
2018-08-13T02:34:13.207Z,61.40
2018-08-13T02:39:16.280Z,61.30
2018-08-13T02:44:19.300Z,61.60
2018-08-13T02:49:22.320Z,62.40
2018-08-13T02:54:25.392Z,62.70
2018-08-13T02:59:28.415Z,63.10
2018-08-13T03:04:31.440Z,63.80
2018-08-13T03:09:34.449Z,64.40
2018-08-13T03:14:37.476Z,64.90
2018-08-13T03:19:40.533Z,65.60
2018-08-13T03:24:43.623Z,66.00
2018-08-13T03:29:46.645Z,66.70
2018-08-13T03:34:49.684Z,67.40
2018-08-13T03:39:52.701Z,68.30
2018-08-13T03:44:55.761Z,68.70
2018-08-13T03:49:58.770Z,69.50
2018-08-13T03:55:01.798Z,70.10
2018-08-13T04:00:08.656Z,70.70
2018-08-13T04:05:12.716Z,71.50
2018-08-13T04:10:15.769Z,71.70
2018-08-13T04:15:18.801Z,72.30
2018-08-13T04:20:21.811Z,72.70
2018-08-13T04:25:24.836Z,72.80
2018-08-13T04:30:27.870Z,73.20
2018-08-13T04:35:30.904Z,73.40
2018-08-13T04:40:33.920Z,74.00
2018-08-13T04:45:36.962Z,74.10
2018-08-13T04:50:40.005Z,75.00
2018-08-13T04:55:43.036Z,74.80
2018-08-13T05:00:46.050Z,74.80
2018-08-13T05:05:49.168Z,74.50
2018-08-13T05:10:52.174Z,74.50
2018-08-13T05:15:55.278Z,73.40
2018-08-13T05:20:58.292Z,73.30
2018-08-13T05:26:01.391Z,72.60
2018-08-13T05:31:04.450Z,71.30
2018-08-13T05:36:07.495Z,69.50
2018-08-13T05:41:10.616Z,68.70
2018-08-13T05:46:13.657Z,67.70
2018-08-13T05:51:16.727Z,67.30
2018-08-13T05:56:19.832Z,67.00
2018-08-13T06:01:22.866Z,65.60
2018-08-13T06:06:25.887Z,63.90
2018-08-13T06:11:28.912Z,62.90
2018-08-13T06:16:32.040Z,61.40
2018-08-13T06:21:35.158Z,61.80
2018-08-13T06:26:38.251Z,59.60
2018-08-13T06:31:41.310Z,57.90
2018-08-13T06:36:44.364Z,56.90
2018-08-13T06:41:47.363Z,56.90
2018-08-13T06:46:50.379Z,56.30
2018-08-13T06:51:53.428Z,54.50
2018-08-13T06:56:56.475Z,54.40
2018-08-13T07:01:59.492Z,54.10
2018-08-13T07:07:02.792Z,53.90
2018-08-13T07:12:05.855Z,53.00
2018-08-13T07:17:08.885Z,53.30
2018-08-13T07:22:11.930Z,52.80
2018-08-13T07:27:15.006Z,53.40
2018-08-13T07:32:18.028Z,53.70
2018-08-13T07:37:21.080Z,52.10
2018-08-13T07:42:24.161Z,52.90
2018-08-13T07:47:27.344Z,51.80
2018-08-13T07:52:30.418Z,51.60
2018-08-13T07:57:33.661Z,50.20
2018-08-13T08:02:36.756Z,51.20
2018-08-13T08:07:39.940Z,50.90
2018-08-13T08:12:43.158Z,50.30
2018-08-13T08:17:46.187Z,47.70
2018-08-13T08:22:49.290Z,48.20
2018-08-13T08:27:52.315Z,48.90
2018-08-13T08:32:55.363Z,49.10
2018-08-13T08:37:58.409Z,47.30
2018-08-13T08:43:01.693Z,45.00
2018-08-13T08:48:06.299Z,44.40
2018-08-13T08:53:09.354Z,44.80
2018-08-13T08:58:13.239Z,44.10
2018-08-13T09:03:16.300Z,44.50
2018-08-13T09:08:19.319Z,44.60
2018-08-13T09:13:22.363Z,43.40
2018-08-13T09:18:36.863Z,43.20
2018-08-13T09:23:51.348Z,41.70
2018-08-13T09:29:05.952Z,41.60
2018-08-13T09:34:20.646Z,39.70
2018-08-13T09:39:23.900Z,39.00
2018-08-13T09:44:26.914Z,36.80
2018-08-13T09:49:29.927Z,36.70
2018-08-13T09:54:33.024Z,35.60
2018-08-13T09:59:36.071Z,34.80
2018-08-13T10:04:39.111Z,35.50
2018-08-13T10:09:42.115Z,33.10
2018-08-13T10:14:45.118Z,34.40
2018-08-13T10:19:48.414Z,33.70
2018-08-13T10:24:51.511Z,30.80
2018-08-13T10:29:54.552Z,31.00
2018-08-13T10:34:57.683Z,30.90
2018-08-13T10:40:00.703Z,30.60
2018-08-13T10:45:04.262Z,30.50
2018-08-13T10:50:08.982Z,28.90
2018-08-13T10:55:13.210Z,28.90
2018-08-13T11:00:16.712Z,28.70
2018-08-13T11:05:19.760Z,30.20
2018-08-13T11:10:22.862Z,30.30
2018-08-13T11:15:25.921Z,30.40
2018-08-13T11:20:28.931Z,29.20
2018-08-13T11:25:32.064Z,29.90
2018-08-13T11:30:35.062Z,29.50
2018-08-13T11:35:38.139Z,29.60
2018-08-13T11:40:41.207Z,29.00
2018-08-13T11:45:44.303Z,29.00
2018-08-13T11:50:47.434Z,29.30
2018-08-13T11:55:50.567Z,26.70
2018-08-13T12:00:53.634Z,27.50
2018-08-13T12:05:56.747Z,27.20
2018-08-13T12:10:59.943Z,25.90
2018-08-13T12:16:03.234Z,26.80
2018-08-13T12:21:06.312Z,27.00
2018-08-13T12:26:09.444Z,26.60
2018-08-13T12:31:12.631Z,26.20
2018-08-13T12:36:15.793Z,26.90
2018-08-13T12:41:18.840Z,27.80
2018-08-13T12:46:21.907Z,26.80
2018-08-13T12:51:24.939Z,26.60
2018-08-13T12:56:27.968Z,26.80
2018-08-13T13:01:31.517Z,27.10
2018-08-13T13:06:34.719Z,27.00
2018-08-13T13:11:37.993Z,27.20
2018-08-13T13:16:41.024Z,27.50
2018-08-13T13:21:44.175Z,26.80
2018-08-13T13:26:47.208Z,27.20
2018-08-13T13:31:50.315Z,27.40
2018-08-13T13:36:53.374Z,27.20
2018-08-13T13:41:56.382Z,27.60
2018-08-13T13:46:59.419Z,27.80
2018-08-13T13:52:02.581Z,27.80
2018-08-13T13:57:05.593Z,28.20
2018-08-13T14:02:09.873Z,29.00
2018-08-13T14:07:12.924Z,29.60
2018-08-13T14:12:15.955Z,30.00
2018-08-13T14:17:19.000Z,30.40
2018-08-13T14:22:22.067Z,30.80
2018-08-13T14:27:25.125Z,30.90
2018-08-13T14:32:28.175Z,30.40
2018-08-13T14:37:31.275Z,32.90
2018-08-13T14:42:34.305Z,34.30
2018-08-13T14:47:37.471Z,36.10
2018-08-13T14:52:41.927Z,35.80
2018-08-13T14:57:45.067Z,36.50
2018-08-13T15:02:48.527Z,37.50
2018-08-13T15:07:51.578Z,38.20
2018-08-13T15:12:55.020Z,38.40
2018-08-13T15:17:58.151Z,39.30
2018-08-13T15:23:01.188Z,40.20
2018-08-13T15:28:04.308Z,40.90
2018-08-13T15:33:07.245Z,41.60
2018-08-13T15:38:10.276Z,41.90
2018-08-13T15:43:13.314Z,42.60
2018-08-13T15:48:16.359Z,43.30
2018-08-13T15:53:19.421Z,44.10
2018-08-13T15:58:22.443Z,45.00
2018-08-13T16:03:25.476Z,46.00
2018-08-13T16:08:28.554Z,46.10
2018-08-13T16:13:31.774Z,47.30
2018-08-13T16:18:35.066Z,46.80
2018-08-13T16:23:38.285Z,47.70
2018-08-13T16:28:41.543Z,48.00
2018-08-13T16:33:44.617Z,48.80
2018-08-13T16:38:47.704Z,49.30
2018-08-13T16:43:50.724Z,49.60
2018-08-13T16:48:53.760Z,50.70
2018-08-13T16:53:56.816Z,51.70
2018-08-13T16:58:59.864Z,52.20
2018-08-13T17:04:02.916Z,53.40
2018-08-13T17:09:08.214Z,54.20
2018-08-13T17:14:13.809Z,55.00
2018-08-13T17:19:16.752Z,54.80
2018-08-13T17:24:19.802Z,55.00
2018-08-13T17:29:22.831Z,54.90
2018-08-13T17:34:25.872Z,55.20
2018-08-13T17:39:28.916Z,55.40
2018-08-13T17:44:32.400Z,55.00
2018-08-13T17:49:35.536Z,54.90
2018-08-13T17:54:38.595Z,55.30
2018-08-13T17:59:41.639Z,55.80
2018-08-13T18:04:45.440Z,56.20
2018-08-13T18:09:48.548Z,57.30
2018-08-13T18:14:51.625Z,59.00
2018-08-13T18:19:54.894Z,58.60
2018-08-13T18:24:58.023Z,58.80
2018-08-13T18:30:01.118Z,59.30
2018-08-13T18:35:04.520Z,60.80
2018-08-13T18:40:19.125Z,61.90
2018-08-13T18:45:22.225Z,62.80
2018-08-13T18:50:25.257Z,64.90
2018-08-13T18:55:28.391Z,66.30
2018-08-13T19:00:31.632Z,67.90
2018-08-13T19:05:35.068Z,69.30
2018-08-13T19:10:38.152Z,69.50
2018-08-13T19:15:41.264Z,70.60
2018-08-13T19:20:44.325Z,71.80
2018-08-13T19:25:47.477Z,72.80
2018-08-13T19:30:50.521Z,74.30
2018-08-13T19:35:53.699Z,75.30
2018-08-13T19:40:56.740Z,76.00
2018-08-13T19:45:59.906Z,76.90
2018-08-13T19:51:02.973Z,77.10
2018-08-13T19:56:06.295Z,78.40
2018-08-13T20:01:09.340Z,80.60
2018-08-13T20:06:12.411Z,81.40
2018-08-13T20:11:15.463Z,80.90
2018-08-13T20:16:18.531Z,80.80
2018-08-13T20:21:21.544Z,80.60
2018-08-13T20:26:24.625Z,80.70
2018-08-13T20:31:27.673Z,82.40
2018-08-13T20:36:30.989Z,83.80
2018-08-13T20:41:34.040Z,85.00
2018-08-13T20:46:37.270Z,86.10
2018-08-13T20:51:40.411Z,86.60
2018-08-13T20:56:43.468Z,87.50
2018-08-13T21:01:46.572Z,87.40
2018-08-13T21:06:49.612Z,86.80
2018-08-13T21:11:52.643Z,87.40
2018-08-13T21:16:55.807Z,87.70
2018-08-13T21:21:58.834Z,88.30
2018-08-13T21:27:01.934Z,89.80
2018-08-13T21:32:04.956Z,90.10
2018-08-13T21:37:08.010Z,90.20
2018-08-13T21:42:11.061Z,90.80
2018-08-13T21:47:14.179Z,90.50
2018-08-13T21:52:17.223Z,90.40
2018-08-13T21:57:23.429Z,90.90
2018-08-13T22:02:26.484Z,91.00
2018-08-13T22:07:29.536Z,91.20
2018-08-13T22:12:32.590Z,91.00
2018-08-13T22:17:35.720Z,91.30
2018-08-13T22:22:38.788Z,91.40
2018-08-13T22:27:41.831Z,91.30
2018-08-13T22:32:44.843Z,91.20
2018-08-13T22:37:47.888Z,91.10
2018-08-13T22:42:50.971Z,91.30
2018-08-13T22:47:54.016Z,91.20
2018-08-13T22:52:57.095Z,91.20
2018-08-13T22:58:00.154Z,91.30
2018-08-13T23:03:03.217Z,91.40
2018-08-13T23:08:06.735Z,91.70
2018-08-13T23:13:14.804Z,91.80
2018-08-13T23:18:17.831Z,91.90
2018-08-13T23:23:20.883Z,92.00
2018-08-13T23:28:23.925Z,92.20
2018-08-13T23:33:26.957Z,92.40
2018-08-13T23:38:30.005Z,92.30
2018-08-13T23:43:33.079Z,92.30
2018-08-13T23:48:36.112Z,92.30
2018-08-13T23:53:39.148Z,92.40
2018-08-13T23:58:42.165Z,92.70
